ADDS METAR Data INFO
IDs: Format: Raw Decoded Include TAF

Data at: 1337 UTC 19 Jul 2018

KTTN 191253Z 01006KT 10SM CLR 22/12 A3009 RMK AO2 SLP183 T02220122
KTTN 191153Z 35004KT 10SM CLR 19/13 A3007 RMK AO2 SLP176 T01940128 10194 20150 51010
KTTN 191053Z 33006KT 10SM CLR 17/12 A3006 RMK AO2 SLP174 T01670117
KTTN 190953Z 34006KT 10SM CLR 16/12 A3006 RMK AO2 SLP171 T01560122
KTTN 190853Z AUTO 32003KT 10SM CLR 17/12 A3004 RMK AO2 SLP166 T01670122 53005
KTTN 190753Z AUTO 32005KT 10SM CLR 18/11 A3003 RMK AO2 SLP161 T01780111
KTTN 190653Z AUTO 33003KT 10SM CLR 18/12 A3003 RMK AO2 SLP161 T01830117
KTTN 190553Z AUTO 34006KT 10SM CLR 19/12 A3003 RMK AO2 SLP159 T01940117 10267 20189 53014
KTTN 190453Z AUTO 35006KT 10SM CLR 19/12 A3001 RMK AO2 SLP153 T01940122 403000189
KTTN 190353Z AUTO 35005KT 10SM CLR 20/13 A2999 RMK AO2 SLP148 T02000133
KTTN 190253Z AUTO 34005KT 10SM CLR 21/13 A2998 RMK AO2 SLP145 T02110133 51018
KTTN 190153Z 34005KT 10SM CLR 23/13 A2997 RMK AO2 SLP141 T02280133
KTTN 190053Z 34005KT 10SM CLR 24/13 A2994 RMK AO2 SLP133 T02390133
KTTN 182353Z 34005KT 10SM CLR 27/13 A2993 RMK AO2 SLP127 T02720133 10300 20272 53011
KTTN 182253Z 33006KT 10SM CLR 28/13 A2991 RMK AO2 SLP120 T02830128
KTTN 182153Z 32007KT 10SM CLR 29/13 A2990 RMK AO2 SLP117 T02890133
KTTN 182053Z 33010KT 10SM CLR 29/13 A2990 RMK AO2 SLP116 T02940128 58003
KTTN 181953Z 01008KT 10SM CLR 30/13 A2990 RMK AO2 SLP118 T03000133
KTTN 181853Z 32009KT 290V350 10SM FEW060 29/14 A2991 RMK AO2 SLP120 T02940139
KTTN 181753Z 34008G16KT 10SM FEW055 29/15 A2991 RMK AO2 SLP119 T02940150 10294 20211 55005
KTTN 181653Z 35008KT 10SM FEW050 29/17 A2991 RMK AO2 SLP119 T02890167
KTTN 181553Z 36008KT 10SM CLR 27/17 A2992 RMK AO2 SLP122 T02720172
KTTN 181453Z 01007KT 10SM CLR 26/17 A2992 RMK AO2 SLP124 T02610172 51011
KTTN 181353Z 35012KT 10SM CLR 24/17 A2991 RMK AO2 SLP121 T02440167
KTTN 181253Z 35009KT 10SM CLR 23/17 A2990 RMK AO2 SLP119 T02280167
KTTN 181153Z 34006KT 10SM CLR 21/16 A2989 RMK AO2 SLP114 70143 T02110161 10217 20189 53008
KTTN 181053Z 33005KT 10SM FEW080 19/16 A2988 RMK AO2 SLP110 T01940156
KTTN 180953Z 31004KT 10SM CLR 19/16 A2987 RMK AO2 SLP109 T01890156
KTTN 180853Z AUTO 32004KT 10SM BKN080 20/17 A2986 RMK AO2 SLP106 T02000172 53013
KTTN 180753Z AUTO 33005KT 10SM CLR 21/18 A2985 RMK AO2 SLP100 T02060183
KTTN 180653Z AUTO 33004KT 10SM CLR 21/19 A2984 RMK AO2 SLP096 T02110194
KTTN 180553Z AUTO 34004KT 10SM CLR 22/21 A2982 RMK AO2 SLP092 T02170206 10239 20217 55002
KTTN 180453Z AUTO 01003KT 10SM SCT055 23/21 A2982 RMK AO2 SLP090 T02280211 403330222
KTTN 180406Z AUTO 00000KT 10SM FEW008 23/22 A2983 RMK AO2 T02280217
KTTN 180353Z AUTO 00000KT 10SM SCT009 BKN019 23/22 A2982 RMK AO2 SLP090 T02280217
KTTN 180341Z AUTO 00000KT 10SM FEW009 BKN019 BKN070 23/22 A2983 RMK AO2 T02280222
KTTN 180253Z AUTO 36003KT 9SM FEW020 BKN070 BKN110 23/22 A2983 RMK AO2 SLP093 T02280217 58001
KTTN 180211Z AUTO 29003KT 10SM SCT008 23/22 A2985 RMK AO2 T02330217
KTTN 180153Z 00000KT 9SM CLR 23/22 A2984 RMK AO2 SLP096 T02280217